sensor_id;sensor_type;location;lat;lon;timestamp;P1;durP1;ratioP1;P2;durP2;ratioP2
43337;SDS011;28933;52.492;13.434;2023-10-19T00:02:28;14.48;;;9.38;;
43337;SDS011;28933;52.492;13.434;2023-10-19T00:05:14;14.48;;;10.25;;
43337;SDS011;28933;52.492;13.434;2023-10-19T00:08:02;15.77;;;10.25;;
43337;SDS011;28933;52.492;13.434;2023-10-19T00:10:58;14.88;;;10.80;;
43337;SDS011;28933;52.492;13.434;2023-10-19T00:13:52;16.30;;;10.82;;
43337;SDS011;28933;52.492;13.434;2023-10-19T00:16:43;15.43;;;9.48;;
43337;SDS011;28933;52.492;13.434;2023-10-19T00:19:35;15.23;;;9.90;;
43337;SDS011;28933;52.492;13.434;2023-10-19T00:22:25;12.48;;;9.70;;
43337;SDS011;28933;52.492;13.434;2023-10-19T00:25:11;15.77;;;10.18;;
43337;SDS011;28933;52.492;13.434;2023-10-19T00:28:00;15.80;;;10.98;;
43337;SDS011;28933;52.492;13.434;2023-10-19T00:30:49;19.15;;;10.93;;
43337;SDS011;28933;52.492;13.434;2023-10-19T00:33:38;14.48;;;9.95;;
43337;SDS011;28933;52.492;13.434;2023-10-19T00:36:24;14.13;;;9.80;;
43337;SDS011;28933;52.492;13.434;2023-10-19T00:39:11;13.68;;;9.35;;
43337;SDS011;28933;52.492;13.434;2023-10-19T00:42:06;13.65;;;9.95;;
43337;SDS011;28933;52.492;13.434;2023-10-19T00:44:52;15.27;;;9.65;;
43337;SDS011;28933;52.492;13.434;2023-10-19T00:47:46;14.98;;;10.00;;
43337;SDS011;28933;52.492;13.434;2023-10-19T00:50:33;19.15;;;11.05;;
43337;SDS011;28933;52.492;13.434;2023-10-19T00:53:21;17.73;;;10.57;;
43337;SDS011;28933;52.492;13.434;2023-10-19T00:56:08;16.17;;;10.55;;
43337;SDS011;28933;52.492;13.434;2023-10-19T00:58:55;18.88;;;9.27;;
43337;SDS011;28933;52.492;13.434;2023-10-19T01:01:45;16.90;;;11.07;;
43337;SDS011;28933;52.492;13.434;2023-10-19T01:04:34;14.02;;;9.55;;
43337;SDS011;28933;52.492;13.434;2023-10-19T01:07:21;16.65;;;11.00;;
43337;SDS011;28933;52.492;13.434;2023-10-19T01:10:12;17.27;;;10.82;;
43337;SDS011;28933;52.492;13.434;2023-10-19T01:13:06;17.35;;;10.75;;
43337;SDS011;28933;52.492;13.434;2023-10-19T01:15:52;15.40;;;10.05;;
43337;SDS011;28933;52.492;13.434;2023-10-19T01:18:39;17.15;;;10.77;;
43337;SDS011;28933;52.492;13.434;2023-10-19T01:21:28;17.00;;;10.65;;
43337;SDS011;28933;52.492;13.434;2023-10-19T01:24:22;16.05;;;10.50;;
43337;SDS011;28933;52.492;13.434;2023-10-19T01:27:27;14.07;;;9.85;;
43337;SDS011;28933;52.492;13.434;2023-10-19T01:30:16;15.88;;;10.23;;
43337;SDS011;28933;52.492;13.434;2023-10-19T01:33:05;16.10;;;10.85;;
43337;SDS011;28933;52.492;13.434;2023-10-19T01:35:58;16.55;;;10.70;;
43337;SDS011;28933;52.492;13.434;2023-10-19T01:38:56;18.33;;;10.32;;
43337;SDS011;28933;52.492;13.434;2023-10-19T01:41:46;16.63;;;10.63;;
43337;SDS011;28933;52.492;13.434;2023-10-19T01:44:35;18.40;;;11.30;;
43337;SDS011;28933;52.492;13.434;2023-10-19T01:47:21;16.75;;;11.15;;
43337;SDS011;28933;52.492;13.434;2023-10-19T01:50:08;17.00;;;11.85;;
43337;SDS011;28933;52.492;13.434;2023-10-19T01:53:05;15.63;;;10.82;;
43337;SDS011;28933;52.492;13.434;2023-10-19T01:58:46;16.13;;;11.90;;
43337;SDS011;28933;52.492;13.434;2023-10-19T02:01:32;18.50;;;12.10;;
43337;SDS011;28933;52.492;13.434;2023-10-19T02:04:18;18.77;;;11.77;;
43337;SDS011;28933;52.492;13.434;2023-10-19T02:07:07;16.92;;;11.45;;
43337;SDS011;28933;52.492;13.434;2023-10-19T02:09:58;16.00;;;10.95;;
43337;SDS011;28933;52.492;13.434;2023-10-19T02:12:44;16.77;;;11.43;;
43337;SDS011;28933;52.492;13.434;2023-10-19T02:15:32;20.40;;;11.38;;
43337;SDS011;28933;52.492;13.434;2023-10-19T02:18:22;15.50;;;11.90;;
43337;SDS011;28933;52.492;13.434;2023-10-19T02:21:08;18.13;;;12.98;;
43337;SDS011;28933;52.492;13.434;2023-10-19T02:23:57;17.35;;;11.02;;
43337;SDS011;28933;52.492;13.434;2023-10-19T02:26:43;20.33;;;11.50;;
43337;SDS011;28933;52.492;13.434;2023-10-19T02:29:32;16.35;;;11.63;;
43337;SDS011;28933;52.492;13.434;2023-10-19T02:32:18;18.15;;;11.73;;
43337;SDS011;28933;52.492;13.434;2023-10-19T02:35:04;18.10;;;11.68;;
43337;SDS011;28933;52.492;13.434;2023-10-19T02:37:50;17.95;;;12.05;;
43337;SDS011;28933;52.492;13.434;2023-10-19T02:40:36;19.35;;;12.68;;
43337;SDS011;28933;52.492;13.434;2023-10-19T02:43:23;19.25;;;12.25;;
43337;SDS011;28933;52.492;13.434;2023-10-19T02:46:09;20.52;;;13.25;;
43337;SDS011;28933;52.492;13.434;2023-10-19T02:48:56;18.38;;;12.40;;
43337;SDS011;28933;52.492;13.434;2023-10-19T02:51:42;16.67;;;12.35;;
43337;SDS011;28933;52.492;13.434;2023-10-19T02:54:31;18.30;;;12.10;;
43337;SDS011;28933;52.492;13.434;2023-10-19T02:57:20;19.02;;;11.65;;
43337;SDS011;28933;52.492;13.434;2023-10-19T03:00:06;17.95;;;11.95;;
43337;SDS011;28933;52.492;13.434;2023-10-19T03:02:57;18.35;;;12.50;;
43337;SDS011;28933;52.492;13.434;2023-10-19T03:05:45;16.85;;;12.18;;
43337;SDS011;28933;52.492;13.434;2023-10-19T03:08:31;17.02;;;11.10;;
43337;SDS011;28933;52.492;13.434;2023-10-19T03:11:17;19.75;;;11.85;;
43337;SDS011;28933;52.492;13.434;2023-10-19T03:14:04;18.20;;;12.25;;
43337;SDS011;28933;52.492;13.434;2023-10-19T03:16:51;16.80;;;11.02;;
43337;SDS011;28933;52.492;13.434;2023-10-19T03:19:40;18.63;;;12.27;;
43337;SDS011;28933;52.492;13.434;2023-10-19T03:22:27;16.45;;;11.35;;
43337;SDS011;28933;52.492;13.434;2023-10-19T03:25:15;17.40;;;12.40;;
43337;SDS011;28933;52.492;13.434;2023-10-19T03:28:20;17.40;;;12.63;;
43337;SDS011;28933;52.492;13.434;2023-10-19T03:31:11;16.85;;;11.55;;
43337;SDS011;28933;52.492;13.434;2023-10-19T03:34:03;18.00;;;11.65;;
43337;SDS011;28933;52.492;13.434;2023-10-19T03:36:51;18.88;;;12.30;;
43337;SDS011;28933;52.492;13.434;2023-10-19T03:39:37;21.65;;;13.02;;
43337;SDS011;28933;52.492;13.434;2023-10-19T03:42:23;20.80;;;13.05;;
43337;SDS011;28933;52.492;13.434;2023-10-19T03:45:18;18.30;;;12.18;;
43337;SDS011;28933;52.492;13.434;2023-10-19T03:48:07;18.17;;;12.57;;
43337;SDS011;28933;52.492;13.434;2023-10-19T03:50:54;18.80;;;12.70;;
43337;SDS011;28933;52.492;13.434;2023-10-19T03:53:41;19.67;;;12.52;;
43337;SDS011;28933;52.492;13.434;2023-10-19T03:56:39;17.52;;;11.82;;
43337;SDS011;28933;52.492;13.434;2023-10-19T03:59:26;18.67;;;13.00;;
43337;SDS011;28933;52.492;13.434;2023-10-19T04:02:16;18.75;;;13.13;;
43337;SDS011;28933;52.492;13.434;2023-10-19T04:05:06;18.10;;;13.10;;
43337;SDS011;28933;52.492;13.434;2023-10-19T04:07:54;18.17;;;13.07;;
43337;SDS011;28933;52.492;13.434;2023-10-19T04:10:40;19.20;;;13.30;;
43337;SDS011;28933;52.492;13.434;2023-10-19T04:13:30;20.13;;;13.18;;
43337;SDS011;28933;52.492;13.434;2023-10-19T04:16:16;21.75;;;13.63;;
43337;SDS011;28933;52.492;13.434;2023-10-19T04:19:02;17.08;;;13.38;;
43337;SDS011;28933;52.492;13.434;2023-10-19T04:21:49;21.50;;;13.98;;
43337;SDS011;28933;52.492;13.434;2023-10-19T04:24:36;20.88;;;12.52;;
43337;SDS011;28933;52.492;13.434;2023-10-19T04:27:22;19.60;;;12.98;;
43337;SDS011;28933;52.492;13.434;2023-10-19T04:30:12;19.77;;;12.45;;
43337;SDS011;28933;52.492;13.434;2023-10-19T04:33:01;22.13;;;14.13;;
43337;SDS011;28933;52.492;13.434;2023-10-19T04:35:47;21.50;;;13.55;;
43337;SDS011;28933;52.492;13.434;2023-10-19T04:38:41;19.88;;;13.82;;
43337;SDS011;28933;52.492;13.434;2023-10-19T04:41:29;19.98;;;13.65;;
43337;SDS011;28933;52.492;13.434;2023-10-19T04:44:15;22.63;;;13.35;;
43337;SDS011;28933;52.492;13.434;2023-10-19T04:47:01;23.38;;;13.55;;
43337;SDS011;28933;52.492;13.434;2023-10-19T04:49:47;17.60;;;13.52;;
43337;SDS011;28933;52.492;13.434;2023-10-19T04:52:33;21.90;;;13.95;;
43337;SDS011;28933;52.492;13.434;2023-10-19T04:55:19;20.23;;;13.60;;
43337;SDS011;28933;52.492;13.434;2023-10-19T04:58:05;24.05;;;14.80;;
43337;SDS011;28933;52.492;13.434;2023-10-19T05:00:51;19.45;;;13.63;;
43337;SDS011;28933;52.492;13.434;2023-10-19T05:03:38;20.67;;;13.65;;
43337;SDS011;28933;52.492;13.434;2023-10-19T05:06:24;19.77;;;13.57;;
43337;SDS011;28933;52.492;13.434;2023-10-19T05:09:10;21.45;;;13.60;;
43337;SDS011;28933;52.492;13.434;2023-10-19T05:11:57;21.98;;;14.20;;
43337;SDS011;28933;52.492;13.434;2023-10-19T05:14:43;18.80;;;13.38;;
43337;SDS011;28933;52.492;13.434;2023-10-19T05:17:29;21.98;;;13.43;;
43337;SDS011;28933;52.492;13.434;2023-10-19T05:20:15;23.92;;;14.02;;
43337;SDS011;28933;52.492;13.434;2023-10-19T05:23:01;19.95;;;13.95;;
43337;SDS011;28933;52.492;13.434;2023-10-19T05:25:47;24.73;;;16.08;;
43337;SDS011;28933;52.492;13.434;2023-10-19T05:28:33;21.83;;;14.90;;
43337;SDS011;28933;52.492;13.434;2023-10-19T05:31:19;24.05;;;15.27;;
43337;SDS011;28933;52.492;13.434;2023-10-19T05:34:05;21.98;;;13.77;;
43337;SDS011;28933;52.492;13.434;2023-10-19T05:36:53;23.55;;;15.60;;
43337;SDS011;28933;52.492;13.434;2023-10-19T05:39:39;22.77;;;16.15;;
43337;SDS011;28933;52.492;13.434;2023-10-19T05:42:25;23.20;;;16.40;;
43337;SDS011;28933;52.492;13.434;2023-10-19T05:45:13;22.55;;;15.18;;
43337;SDS011;28933;52.492;13.434;2023-10-19T05:48:01;25.20;;;15.57;;
43337;SDS011;28933;52.492;13.434;2023-10-19T05:50:54;23.58;;;15.38;;
43337;SDS011;28933;52.492;13.434;2023-10-19T05:53:40;23.08;;;15.50;;
43337;SDS011;28933;52.492;13.434;2023-10-19T05:56:27;25.48;;;16.60;;
43337;SDS011;28933;52.492;13.434;2023-10-19T05:59:13;22.65;;;15.73;;
43337;SDS011;28933;52.492;13.434;2023-10-19T06:02:00;24.98;;;16.02;;
43337;SDS011;28933;52.492;13.434;2023-10-19T06:04:45;25.15;;;15.00;;
43337;SDS011;28933;52.492;13.434;2023-10-19T06:07:31;21.65;;;16.30;;
43337;SDS011;28933;52.492;13.434;2023-10-19T06:10:18;29.42;;;16.23;;
43337;SDS011;28933;52.492;13.434;2023-10-19T06:13:05;22.40;;;15.50;;
43337;SDS011;28933;52.492;13.434;2023-10-19T06:15:55;22.50;;;15.00;;
43337;SDS011;28933;52.492;13.434;2023-10-19T06:18:41;24.05;;;16.05;;
43337;SDS011;28933;52.492;13.434;2023-10-19T06:21:28;25.95;;;15.95;;
43337;SDS011;28933;52.492;13.434;2023-10-19T06:24:15;23.65;;;16.60;;
43337;SDS011;28933;52.492;13.434;2023-10-19T06:27:01;24.35;;;16.15;;
43337;SDS011;28933;52.492;13.434;2023-10-19T06:29:47;24.33;;;16.10;;
43337;SDS011;28933;52.492;13.434;2023-10-19T06:32:35;24.65;;;15.13;;
43337;SDS011;28933;52.492;13.434;2023-10-19T06:35:21;24.42;;;17.33;;
43337;SDS011;28933;52.492;13.434;2023-10-19T06:38:07;30.60;;;17.80;;
43337;SDS011;28933;52.492;13.434;2023-10-19T06:40:54;23.13;;;15.98;;
43337;SDS011;28933;52.492;13.434;2023-10-19T06:43:41;23.35;;;15.35;;
43337;SDS011;28933;52.492;13.434;2023-10-19T06:46:27;23.92;;;15.75;;
43337;SDS011;28933;52.492;13.434;2023-10-19T06:49:13;24.58;;;14.73;;
43337;SDS011;28933;52.492;13.434;2023-10-19T06:52:00;29.33;;;17.88;;
43337;SDS011;28933;52.492;13.434;2023-10-19T06:54:49;26.20;;;15.82;;
43337;SDS011;28933;52.492;13.434;2023-10-19T06:57:35;26.60;;;16.48;;
43337;SDS011;28933;52.492;13.434;2023-10-19T07:00:21;23.45;;;16.38;;
43337;SDS011;28933;52.492;13.434;2023-10-19T07:03:12;25.58;;;16.15;;
43337;SDS011;28933;52.492;13.434;2023-10-19T07:05:57;24.23;;;16.08;;
43337;SDS011;28933;52.492;13.434;2023-10-19T07:08:44;26.15;;;16.67;;
43337;SDS011;28933;52.492;13.434;2023-10-19T07:11:31;23.55;;;15.23;;
43337;SDS011;28933;52.492;13.434;2023-10-19T07:14:20;22.33;;;16.17;;
43337;SDS011;28933;52.492;13.434;2023-10-19T07:17:09;26.27;;;16.73;;
43337;SDS011;28933;52.492;13.434;2023-10-19T07:19:55;22.42;;;15.63;;
43337;SDS011;28933;52.492;13.434;2023-10-19T07:22:42;23.77;;;15.60;;
43337;SDS011;28933;52.492;13.434;2023-10-19T07:25:29;23.77;;;15.35;;
43337;SDS011;28933;52.492;13.434;2023-10-19T07:28:16;23.40;;;16.23;;
43337;SDS011;28933;52.492;13.434;2023-10-19T07:31:02;26.75;;;17.10;;
43337;SDS011;28933;52.492;13.434;2023-10-19T07:33:48;24.35;;;15.23;;
43337;SDS011;28933;52.492;13.434;2023-10-19T07:36:36;24.65;;;15.82;;
43337;SDS011;28933;52.492;13.434;2023-10-19T07:39:22;23.30;;;15.55;;
43337;SDS011;28933;52.492;13.434;2023-10-19T07:42:08;24.75;;;16.17;;
43337;SDS011;28933;52.492;13.434;2023-10-19T07:44:54;25.42;;;15.95;;
43337;SDS011;28933;52.492;13.434;2023-10-19T07:47:40;23.30;;;15.60;;
43337;SDS011;28933;52.492;13.434;2023-10-19T07:50:27;26.38;;;17.17;;
43337;SDS011;28933;52.492;13.434;2023-10-19T07:53:13;21.25;;;16.77;;
43337;SDS011;28933;52.492;13.434;2023-10-19T07:55:59;24.23;;;15.10;;
43337;SDS011;28933;52.492;13.434;2023-10-19T07:58:45;22.77;;;15.65;;
43337;SDS011;28933;52.492;13.434;2023-10-19T08:01:31;25.13;;;16.08;;
43337;SDS011;28933;52.492;13.434;2023-10-19T08:04:17;25.98;;;16.08;;
43337;SDS011;28933;52.492;13.434;2023-10-19T08:07:03;18.40;;;13.95;;
43337;SDS011;28933;52.492;13.434;2023-10-19T08:09:50;19.92;;;14.35;;
43337;SDS011;28933;52.492;13.434;2023-10-19T08:12:36;22.42;;;14.85;;
43337;SDS011;28933;52.492;13.434;2023-10-19T08:15:28;21.55;;;13.68;;
43337;SDS011;28933;52.492;13.434;2023-10-19T08:18:15;24.83;;;14.23;;
43337;SDS011;28933;52.492;13.434;2023-10-19T08:21:01;23.80;;;15.02;;
43337;SDS011;28933;52.492;13.434;2023-10-19T08:23:47;25.77;;;15.05;;
43337;SDS011;28933;52.492;13.434;2023-10-19T08:26:33;19.88;;;14.52;;
43337;SDS011;28933;52.492;13.434;2023-10-19T08:29:21;20.17;;;14.18;;
43337;SDS011;28933;52.492;13.434;2023-10-19T08:32:09;25.83;;;15.10;;
43337;SDS011;28933;52.492;13.434;2023-10-19T08:34:55;21.13;;;13.90;;
43337;SDS011;28933;52.492;13.434;2023-10-19T08:37:41;26.52;;;15.57;;
43337;SDS011;28933;52.492;13.434;2023-10-19T08:40:27;23.40;;;14.88;;
43337;SDS011;28933;52.492;13.434;2023-10-19T08:43:13;22.83;;;14.57;;
43337;SDS011;28933;52.492;13.434;2023-10-19T08:46:03;23.80;;;14.38;;
43337;SDS011;28933;52.492;13.434;2023-10-19T08:48:49;24.92;;;14.77;;
43337;SDS011;28933;52.492;13.434;2023-10-19T08:51:36;21.52;;;14.82;;
43337;SDS011;28933;52.492;13.434;2023-10-19T08:54:23;20.40;;;14.50;;
43337;SDS011;28933;52.492;13.434;2023-10-19T08:57:11;22.95;;;15.32;;
43337;SDS011;28933;52.492;13.434;2023-10-19T08:59:57;21.27;;;13.70;;
43337;SDS011;28933;52.492;13.434;2023-10-19T09:02:47;20.42;;;14.73;;
43337;SDS011;28933;52.492;13.434;2023-10-19T09:05:33;18.88;;;14.40;;
43337;SDS011;28933;52.492;13.434;2023-10-19T09:08:20;21.35;;;14.82;;
43337;SDS011;28933;52.492;13.434;2023-10-19T09:11:07;20.83;;;13.65;;
43337;SDS011;28933;52.492;13.434;2023-10-19T09:13:54;19.65;;;13.77;;
43337;SDS011;28933;52.492;13.434;2023-10-19T09:16:55;21.88;;;14.95;;
43337;SDS011;28933;52.492;13.434;2023-10-19T09:22:34;21.25;;;15.20;;
43337;SDS011;28933;52.492;13.434;2023-10-19T09:25:22;19.40;;;13.52;;
43337;SDS011;28933;52.492;13.434;2023-10-19T09:28:08;26.90;;;13.80;;
43337;SDS011;28933;52.492;13.434;2023-10-19T09:30:55;23.38;;;14.43;;
43337;SDS011;28933;52.492;13.434;2023-10-19T09:33:46;20.95;;;13.95;;
43337;SDS011;28933;52.492;13.434;2023-10-19T09:36:34;23.00;;;15.43;;
43337;SDS011;28933;52.492;13.434;2023-10-19T09:39:20;23.65;;;14.32;;
43337;SDS011;28933;52.492;13.434;2023-10-19T09:42:09;19.10;;;12.55;;
43337;SDS011;28933;52.492;13.434;2023-10-19T09:44:59;23.25;;;12.63;;
43337;SDS011;28933;52.492;13.434;2023-10-19T09:47:50;21.97;;;13.33;;
43337;SDS011;28933;52.492;13.434;2023-10-19T09:50:37;22.48;;;13.65;;
43337;SDS011;28933;52.492;13.434;2023-10-19T09:53:26;20.88;;;14.20;;
43337;SDS011;28933;52.492;13.434;2023-10-19T09:56:20;19.30;;;14.15;;
43337;SDS011;28933;52.492;13.434;2023-10-19T09:59:15;20.30;;;13.13;;
43337;SDS011;28933;52.492;13.434;2023-10-19T10:02:12;19.10;;;13.68;;
43337;SDS011;28933;52.492;13.434;2023-10-19T10:04:59;20.35;;;13.15;;
43337;SDS011;28933;52.492;13.434;2023-10-19T10:07:45;18.63;;;13.55;;
43337;SDS011;28933;52.492;13.434;2023-10-19T10:10:31;21.15;;;13.93;;
43337;SDS011;28933;52.492;13.434;2023-10-19T10:16:13;19.25;;;13.93;;
43337;SDS011;28933;52.492;13.434;2023-10-19T10:19:02;16.90;;;11.50;;
43337;SDS011;28933;52.492;13.434;2023-10-19T10:24:59;18.73;;;12.98;;
43337;SDS011;28933;52.492;13.434;2023-10-19T10:27:50;19.63;;;12.77;;
43337;SDS011;28933;52.492;13.434;2023-10-19T10:30:36;19.42;;;12.90;;
43337;SDS011;28933;52.492;13.434;2023-10-19T10:33:43;22.48;;;14.75;;
43337;SDS011;28933;52.492;13.434;2023-10-19T10:36:31;22.00;;;14.82;;
43337;SDS011;28933;52.492;13.434;2023-10-19T10:39:47;19.02;;;12.90;;
43337;SDS011;28933;52.492;13.434;2023-10-19T10:42:34;17.13;;;13.32;;
43337;SDS011;28933;52.492;13.434;2023-10-19T10:45:20;18.48;;;13.57;;
43337;SDS011;28933;52.492;13.434;2023-10-19T10:48:13;20.50;;;13.25;;
43337;SDS011;28933;52.492;13.434;2023-10-19T10:51:00;19.75;;;13.70;;
43337;SDS011;28933;52.492;13.434;2023-10-19T10:53:46;20.08;;;13.48;;
43337;SDS011;28933;52.492;13.434;2023-10-19T10:56:39;21.45;;;14.45;;
43337;SDS011;28933;52.492;13.434;2023-10-19T10:59:25;19.33;;;14.30;;
43337;SDS011;28933;52.492;13.434;2023-10-19T11:02:17;19.63;;;13.88;;
43337;SDS011;28933;52.492;13.434;2023-10-19T11:05:04;22.00;;;13.95;;
43337;SDS011;28933;52.492;13.434;2023-10-19T11:08:10;24.17;;;14.00;;
43337;SDS011;28933;52.492;13.434;2023-10-19T11:11:08;20.23;;;14.32;;
43337;SDS011;28933;52.492;13.434;2023-10-19T11:14:08;19.00;;;14.63;;
43337;SDS011;28933;52.492;13.434;2023-10-19T11:16:54;22.25;;;14.95;;
43337;SDS011;28933;52.492;13.434;2023-10-19T11:19:59;19.08;;;14.18;;
43337;SDS011;28933;52.492;13.434;2023-10-19T11:22:48;18.13;;;12.80;;
43337;SDS011;28933;52.492;13.434;2023-10-19T11:25:35;22.45;;;14.93;;
43337;SDS011;28933;52.492;13.434;2023-10-19T11:28:21;20.73;;;14.23;;
43337;SDS011;28933;52.492;13.434;2023-10-19T11:31:20;17.85;;;14.23;;
43337;SDS011;28933;52.492;13.434;2023-10-19T11:34:08;19.63;;;14.27;;
43337;SDS011;28933;52.492;13.434;2023-10-19T11:36:58;22.35;;;15.85;;
43337;SDS011;28933;52.492;13.434;2023-10-19T11:39:48;19.63;;;14.18;;
43337;SDS011;28933;52.492;13.434;2023-10-19T11:42:38;24.77;;;15.80;;
43337;SDS011;28933;52.492;13.434;2023-10-19T11:45:23;22.45;;;16.52;;
43337;SDS011;28933;52.492;13.434;2023-10-19T11:48:09;23.50;;;16.02;;
43337;SDS011;28933;52.492;13.434;2023-10-19T11:50:55;24.67;;;14.20;;
43337;SDS011;28933;52.492;13.434;2023-10-19T11:53:42;21.65;;;16.60;;
43337;SDS011;28933;52.492;13.434;2023-10-19T11:56:28;20.85;;;14.07;;
43337;SDS011;28933;52.492;13.434;2023-10-19T11:59:14;24.33;;;14.63;;
43337;SDS011;28933;52.492;13.434;2023-10-19T12:02:00;22.33;;;15.02;;
43337;SDS011;28933;52.492;13.434;2023-10-19T12:04:49;24.48;;;14.85;;
43337;SDS011;28933;52.492;13.434;2023-10-19T12:07:38;22.63;;;15.75;;
43337;SDS011;28933;52.492;13.434;2023-10-19T12:10:24;21.52;;;14.65;;
43337;SDS011;28933;52.492;13.434;2023-10-19T12:13:17;19.92;;;15.02;;
43337;SDS011;28933;52.492;13.434;2023-10-19T12:16:03;22.63;;;16.23;;
43337;SDS011;28933;52.492;13.434;2023-10-19T12:18:50;23.05;;;15.25;;
43337;SDS011;28933;52.492;13.434;2023-10-19T12:21:36;22.60;;;15.70;;
43337;SDS011;28933;52.492;13.434;2023-10-19T12:24:26;23.15;;;16.23;;
43337;SDS011;28933;52.492;13.434;2023-10-19T12:27:14;23.60;;;16.90;;
43337;SDS011;28933;52.492;13.434;2023-10-19T12:30:00;22.17;;;16.25;;
43337;SDS011;28933;52.492;13.434;2023-10-19T12:32:56;23.95;;;16.13;;
43337;SDS011;28933;52.492;13.434;2023-10-19T12:35:43;23.10;;;16.02;;
43337;SDS011;28933;52.492;13.434;2023-10-19T12:38:37;23.95;;;16.45;;
43337;SDS011;28933;52.492;13.434;2023-10-19T12:41:23;22.20;;;16.45;;
43337;SDS011;28933;52.492;13.434;2023-10-19T12:44:10;22.38;;;16.23;;
43337;SDS011;28933;52.492;13.434;2023-10-19T12:46:57;24.85;;;17.30;;
43337;SDS011;28933;52.492;13.434;2023-10-19T12:49:44;23.95;;;16.85;;
43337;SDS011;28933;52.492;13.434;2023-10-19T12:52:33;21.65;;;16.15;;
43337;SDS011;28933;52.492;13.434;2023-10-19T12:55:22;22.92;;;16.88;;
43337;SDS011;28933;52.492;13.434;2023-10-19T12:58:12;27.02;;;19.45;;
43337;SDS011;28933;52.492;13.434;2023-10-19T13:01:00;22.92;;;18.35;;
43337;SDS011;28933;52.492;13.434;2023-10-19T13:03:47;24.50;;;17.98;;
43337;SDS011;28933;52.492;13.434;2023-10-19T13:06:34;24.95;;;18.85;;
43337;SDS011;28933;52.492;13.434;2023-10-19T13:09:21;26.20;;;17.95;;
43337;SDS011;28933;52.492;13.434;2023-10-19T13:12:07;27.40;;;18.58;;
43337;SDS011;28933;52.492;13.434;2023-10-19T13:14:54;23.17;;;17.65;;
43337;SDS011;28933;52.492;13.434;2023-10-19T13:17:41;27.65;;;18.08;;
43337;SDS011;28933;52.492;13.434;2023-10-19T13:20:28;27.73;;;18.58;;
43337;SDS011;28933;52.492;13.434;2023-10-19T13:23:22;29.52;;;18.27;;
43337;SDS011;28933;52.492;13.434;2023-10-19T13:26:09;24.92;;;16.65;;
43337;SDS011;28933;52.492;13.434;2023-10-19T13:29:01;28.58;;;17.98;;
43337;SDS011;28933;52.492;13.434;2023-10-19T13:31:47;33.30;;;17.83;;
43337;SDS011;28933;52.492;13.434;2023-10-19T13:34:37;27.38;;;18.50;;
43337;SDS011;28933;52.492;13.434;2023-10-19T13:37:25;28.13;;;17.40;;
43337;SDS011;28933;52.492;13.434;2023-10-19T13:40:11;25.40;;;18.20;;
43337;SDS011;28933;52.492;13.434;2023-10-19T13:42:58;30.25;;;21.00;;
43337;SDS011;28933;52.492;13.434;2023-10-19T13:45:44;27.45;;;18.85;;
43337;SDS011;28933;52.492;13.434;2023-10-19T13:48:32;27.73;;;19.15;;
43337;SDS011;28933;52.492;13.434;2023-10-19T13:51:18;25.35;;;18.83;;
43337;SDS011;28933;52.492;13.434;2023-10-19T13:54:05;26.52;;;19.58;;
43337;SDS011;28933;52.492;13.434;2023-10-19T13:56:51;24.85;;;18.45;;
43337;SDS011;28933;52.492;13.434;2023-10-19T13:59:37;26.70;;;19.83;;
43337;SDS011;28933;52.492;13.434;2023-10-19T14:02:23;26.75;;;19.33;;
43337;SDS011;28933;52.492;13.434;2023-10-19T14:05:10;27.67;;;18.85;;
43337;SDS011;28933;52.492;13.434;2023-10-19T14:07:56;30.27;;;19.35;;
43337;SDS011;28933;52.492;13.434;2023-10-19T14:10:42;27.10;;;18.83;;
43337;SDS011;28933;52.492;13.434;2023-10-19T14:13:28;27.55;;;18.33;;
43337;SDS011;28933;52.492;13.434;2023-10-19T14:16:14;27.60;;;19.38;;
43337;SDS011;28933;52.492;13.434;2023-10-19T14:19:01;27.52;;;19.60;;
43337;SDS011;28933;52.492;13.434;2023-10-19T14:21:48;28.50;;;19.77;;
43337;SDS011;28933;52.492;13.434;2023-10-19T14:24:34;26.45;;;19.55;;
43337;SDS011;28933;52.492;13.434;2023-10-19T14:27:20;29.00;;;19.33;;
43337;SDS011;28933;52.492;13.434;2023-10-19T14:30:06;30.45;;;20.45;;
43337;SDS011;28933;52.492;13.434;2023-10-19T14:32:57;25.17;;;18.60;;
43337;SDS011;28933;52.492;13.434;2023-10-19T14:35:42;30.17;;;18.85;;
43337;SDS011;28933;52.492;13.434;2023-10-19T14:38:28;29.10;;;19.77;;
43337;SDS011;28933;52.492;13.434;2023-10-19T14:41:14;29.17;;;19.45;;
43337;SDS011;28933;52.492;13.434;2023-10-19T14:44:00;28.30;;;20.42;;
43337;SDS011;28933;52.492;13.434;2023-10-19T14:46:48;26.23;;;18.17;;
43337;SDS011;28933;52.492;13.434;2023-10-19T14:49:34;30.45;;;20.92;;
43337;SDS011;28933;52.492;13.434;2023-10-19T14:52:20;29.90;;;20.90;;
43337;SDS011;28933;52.492;13.434;2023-10-19T14:55:09;28.58;;;20.73;;
43337;SDS011;28933;52.492;13.434;2023-10-19T14:57:55;30.52;;;20.85;;
43337;SDS011;28933;52.492;13.434;2023-10-19T15:00:41;29.27;;;20.52;;
43337;SDS011;28933;52.492;13.434;2023-10-19T15:03:28;28.40;;;19.98;;
43337;SDS011;28933;52.492;13.434;2023-10-19T15:06:14;31.40;;;20.45;;
43337;SDS011;28933;52.492;13.434;2023-10-19T15:09:03;29.38;;;20.63;;
43337;SDS011;28933;52.492;13.434;2023-10-19T15:11:49;29.30;;;20.40;;
43337;SDS011;28933;52.492;13.434;2023-10-19T15:14:35;29.98;;;20.40;;
43337;SDS011;28933;52.492;13.434;2023-10-19T15:17:25;29.63;;;21.38;;
43337;SDS011;28933;52.492;13.434;2023-10-19T15:20:12;28.48;;;19.95;;
43337;SDS011;28933;52.492;13.434;2023-10-19T15:23:02;27.95;;;21.45;;
43337;SDS011;28933;52.492;13.434;2023-10-19T15:25:49;31.73;;;20.45;;
43337;SDS011;28933;52.492;13.434;2023-10-19T15:28:35;31.65;;;21.05;;
43337;SDS011;28933;52.492;13.434;2023-10-19T15:31:21;32.17;;;21.67;;
43337;SDS011;28933;52.492;13.434;2023-10-19T15:34:07;31.42;;;20.17;;
43337;SDS011;28933;52.492;13.434;2023-10-19T15:36:54;31.50;;;21.33;;
43337;SDS011;28933;52.492;13.434;2023-10-19T15:39:40;30.10;;;21.80;;
43337;SDS011;28933;52.492;13.434;2023-10-19T15:42:26;31.75;;;20.55;;
43337;SDS011;28933;52.492;13.434;2023-10-19T15:45:12;31.38;;;22.15;;
43337;SDS011;28933;52.492;13.434;2023-10-19T15:47:59;27.77;;;19.55;;
43337;SDS011;28933;52.492;13.434;2023-10-19T15:50:46;25.30;;;19.65;;
43337;SDS011;28933;52.492;13.434;2023-10-19T15:53:32;34.72;;;21.63;;
43337;SDS011;28933;52.492;13.434;2023-10-19T15:56:19;30.25;;;20.63;;
43337;SDS011;28933;52.492;13.434;2023-10-19T15:59:08;29.25;;;18.85;;
43337;SDS011;28933;52.492;13.434;2023-10-19T16:01:54;29.15;;;20.73;;
43337;SDS011;28933;52.492;13.434;2023-10-19T16:04:40;31.85;;;22.20;;
43337;SDS011;28933;52.492;13.434;2023-10-19T16:07:30;32.25;;;21.98;;
43337;SDS011;28933;52.492;13.434;2023-10-19T16:10:16;29.55;;;21.25;;
43337;SDS011;28933;52.492;13.434;2023-10-19T16:13:03;29.65;;;20.67;;
43337;SDS011;28933;52.492;13.434;2023-10-19T16:15:49;31.40;;;22.00;;
43337;SDS011;28933;52.492;13.434;2023-10-19T16:18:35;33.92;;;21.65;;
43337;SDS011;28933;52.492;13.434;2023-10-19T16:21:21;32.15;;;22.20;;